Aeroporto :
LOGIN :

Iscrizione | Disclaimer

   EN    FR    IT 

 










Sommario :    VFR   VFR Marginale   IFR   IFR Intensivo   IFR Molto Intensivo
Visibilità : 
Base nubi : 
>= 8 km
>= 3000ft
5 / 8 km
1000 / 3000 ft
1500m / 5 km
500 / 1000 ft
800 / 1500m
200 / 500 ft
< 800m
< 200 ft
Simboli :   Temporali  Nebbia  Neve Forte  Precipitazioni Forti  Vento > 20 kt
SIGMETs :   Varie  Temporali  Ghiacco  Turbolenza  Onda orograficha  Ceneri Vulcaniche






- Altitudine del aeroporto : 863 ft
- Codice IATA : ZAZ


LEZG - Zaragoza Aragon

ULTIMO METAR :
  • 121130Z 34001KT CAVOK 21/07 Q1031

METARs OBSOLETI :
  • 121100Z VRB02KT CAVOK 20/08 Q1031
  • 121030Z 02002KT CAVOK 19/09 Q1032
  • 121000Z 31002KT CAVOK 18/07 Q1032
  • 120930Z 33003KT 250V020 CAVOK 16/07 Q1032
  • 120900Z 00000KT CAVOK 16/07 Q1032
  • 120830Z 16001KT CAVOK 14/06 Q1032
  • 120800Z VRB02KT CAVOK 12/06 Q1032
  • 120730Z VRB02KT CAVOK 11/06 Q1032
  • 120700Z 35003KT 330V060 CAVOK 10/05 Q1032

TAF TAF LEZG
Valido dal 12 a 12 ore il 13 a 12 ore UTC


121100Z 1212/1312 11003KT CAVOK TX27/1215Z TN12/1306Z



MetMap, La meteo Aeronautica in un colpo d'occhio ! - Copyright ORBIFLY Dicembre 2007 - Disclaimer

ORBIFLY MET'MAP TEAM :

Programmazione e sviluppo : Alexandra Zaïnal
Concezione : Baudouin d'Aumeries
Supporto tecnico e logistico : Manuel Goepfert
Aiuto : Marc-Olivier Méhu
Aiuto per la traduzione : Arnaldo La Scala




FONTI E CREDITI :

   NOAA